Time,TemperatureF,DewpointF,PressureIn,WindDirection,WindDirectionDegrees,WindSpeedMPH,WindSpeedGustMPH,Humidity,HourlyPrecipIn,Conditions,Clouds,dailyrainin,SoftwareType,DateUTC
2013-08-02 00:22:00,78.0,67.0,29.96,NE,56,1.0,3.0,69,0.00,,,0.00,,2013-08-02 05:22:00,
2013-08-02 00:32:00,78.0,67.0,29.96,NE,56,1.0,3.0,69,0.00,,,0.00,,2013-08-02 05:32:00,
2013-08-02 00:43:00,78.0,67.0,29.96,NE,56,1.0,3.0,69,0.00,,,0.00,,2013-08-02 05:43:00,
2013-08-02 00:53:00,78.0,67.0,29.96,NE,56,1.0,3.0,69,0.00,,,0.00,,2013-08-02 05:53:00,
2013-08-02 01:02:00,78.0,67.0,29.96,NE,56,1.0,3.0,69,0.00,,,0.00,,2013-08-02 06:02:00,
2013-08-02 02:02:00,77.0,68.0,29.97,NW,319,0.0,2.0,74,0.00,,,0.00,,2013-08-02 07:02:00,
2013-08-02 02:22:00,77.0,68.0,29.97,NW,319,0.0,2.0,74,0.00,,,0.00,,2013-08-02 07:22:00,
2013-08-02 02:33:00,77.0,68.0,29.97,NW,319,0.0,2.0,74,0.00,,,0.00,,2013-08-02 07:33:00,
2013-08-02 02:44:00,77.0,68.0,29.97,NW,319,0.0,2.0,74,0.00,,,0.00,,2013-08-02 07:44:00,
2013-08-02 02:53:00,77.0,68.0,29.97,NW,319,0.0,2.0,74,0.00,,,0.00,,2013-08-02 07:53:00,
2013-08-02 04:02:00,72.0,68.0,29.98,NNE,25,1.0,3.0,86,0.02,,,0.02,,2013-08-02 09:02:00,
2013-08-02 04:23:00,72.0,68.0,29.98,NNE,25,1.0,3.0,86,0.02,,,0.02,,2013-08-02 09:23:00,
2013-08-02 04:33:00,72.0,68.0,29.98,NNE,25,1.0,3.0,86,0.02,,,0.02,,2013-08-02 09:33:00,
2013-08-02 04:44:00,72.0,68.0,29.98,NNE,25,1.0,3.0,86,0.02,,,0.02,,2013-08-02 09:44:00,
2013-08-02 04:53:00,72.0,68.0,29.98,NNE,25,1.0,3.0,86,0.02,,,0.02,,2013-08-02 09:53:00,
2013-08-02 06:02:00,69.0,66.0,29.96,ESE,107,1.0,2.0,89,0.16,,,0.24,,2013-08-02 11:02:00,
2013-08-02 06:23:00,69.0,66.0,29.96,ESE,107,1.0,2.0,89,0.16,,,0.24,,2013-08-02 11:23:00,
2013-08-02 06:33:00,69.0,66.0,29.96,ESE,107,1.0,2.0,89,0.16,,,0.24,,2013-08-02 11:33:00,
2013-08-02 06:43:00,69.0,66.0,29.96,ESE,107,1.0,2.0,89,0.16,,,0.24,,2013-08-02 11:43:00,
2013-08-02 06:52:00,69.0,66.0,29.96,ESE,107,1.0,2.0,89,0.16,,,0.24,,2013-08-02 11:52:00,
2013-08-02 08:02:00,69.0,67.0,29.89,SSE,159,2.0,5.0,92,0.03,,,0.40,,2013-08-02 13:02:00,
2013-08-02 08:22:00,69.0,67.0,29.89,SSE,159,2.0,5.0,92,0.03,,,0.40,,2013-08-02 13:22:00,
2013-08-02 08:33:00,69.0,67.0,29.89,SSE,159,2.0,5.0,92,0.03,,,0.40,,2013-08-02 13:33:00,
2013-08-02 08:43:00,69.0,67.0,29.89,SSE,159,2.0,5.0,92,0.03,,,0.40,,2013-08-02 13:43:00,
2013-08-02 08:52:00,69.0,67.0,29.89,SSE,159,2.0,5.0,92,0.03,,,0.40,,2013-08-02 13:52:00,
2013-08-02 10:02:00,75.0,71.0,29.87,SSW,207,5.0,10.0,86,0.00,,,0.40,,2013-08-02 15:02:00,
2013-08-02 10:22:00,75.0,71.0,29.87,SSW,207,5.0,10.0,86,0.00,,,0.40,,2013-08-02 15:22:00,
2013-08-02 10:32:00,75.0,71.0,29.87,SSW,207,5.0,10.0,86,0.00,,,0.40,,2013-08-02 15:32:00,
2013-08-02 10:43:00,75.0,71.0,29.87,SSW,207,5.0,10.0,86,0.00,,,0.40,,2013-08-02 15:43:00,
2013-08-02 10:52:00,75.0,71.0,29.87,SSW,207,5.0,10.0,86,0.00,,,0.40,,2013-08-02 15:52:00,
2013-08-02 12:22:00,79.0,72.0,29.89,NW,311,2.0,3.0,80,0.00,,,0.40,,2013-08-02 17:22:00,
2013-08-02 12:35:00,79.0,72.0,29.89,NW,311,2.0,3.0,80,0.00,,,0.40,,2013-08-02 17:35:00,
2013-08-02 12:43:00,79.0,72.0,29.89,NW,311,2.0,3.0,80,0.00,,,0.40,,2013-08-02 17:43:00,
2013-08-02 12:52:00,79.0,72.0,29.89,NW,311,2.0,3.0,80,0.00,,,0.40,,2013-08-02 17:52:00,
2013-08-02 13:02:00,79.0,72.0,29.89,NW,311,2.0,3.0,80,0.00,,,0.40,,2013-08-02 18:02:00,
2013-08-02 14:22:00,85.0,72.0,29.87,ENE,68,4.0,10.0,65,0.00,,,0.40,,2013-08-02 19:22:00,
2013-08-02 14:32:00,85.0,72.0,29.87,ENE,68,4.0,10.0,65,0.00,,,0.40,,2013-08-02 19:32:00,
2013-08-02 14:43:00,85.0,72.0,29.87,ENE,68,4.0,10.0,65,0.00,,,0.40,,2013-08-02 19:43:00,
2013-08-02 14:52:00,85.0,72.0,29.87,ENE,68,4.0,10.0,65,0.00,,,0.40,,2013-08-02 19:52:00,
2013-08-02 15:02:00,85.0,72.0,29.87,ENE,68,4.0,10.0,65,0.00,,,0.40,,2013-08-02 20:02:00,
2013-08-02 16:22:00,89.0,74.0,29.84,NNE,27,6.0,12.0,62,0.00,,,0.40,,2013-08-02 21:22:00,
2013-08-02 16:33:00,89.0,74.0,29.84,NNE,27,6.0,12.0,62,0.00,,,0.40,,2013-08-02 21:33:00,
2013-08-02 16:43:00,89.0,74.0,29.84,NNE,27,6.0,12.0,62,0.00,,,0.40,,2013-08-02 21:43:00,
2013-08-02 16:53:00,89.0,74.0,29.84,NNE,27,6.0,12.0,62,0.00,,,0.40,,2013-08-02 21:53:00,
2013-08-02 17:02:00,89.0,74.0,29.84,NNE,27,6.0,12.0,62,0.00,,,0.40,,2013-08-02 22:02:00,
2013-08-02 18:22:00,83.0,73.0,29.86,NE,41,6.0,10.0,73,0.00,,,0.40,,2013-08-02 23:22:00,
2013-08-02 18:32:00,83.0,73.0,29.86,NE,41,6.0,10.0,73,0.00,,,0.40,,2013-08-02 23:32:00,
2013-08-02 18:44:00,83.0,73.0,29.86,NE,41,6.0,10.0,73,0.00,,,0.40,,2013-08-02 23:44:00,
2013-08-02 18:53:00,83.0,73.0,29.86,NE,41,6.0,10.0,73,0.00,,,0.40,,2013-08-02 23:53:00,
2013-08-02 19:02:00,83.0,73.0,29.86,NE,41,6.0,10.0,73,0.00,,,0.40,,2013-08-03 00:02:00,
2013-08-02 20:22:00,81.0,72.0,29.89,NE,47,5.0,10.0,75,0.00,,,0.40,,2013-08-03 01:22:00,
2013-08-02 20:33:00,81.0,72.0,29.89,NE,47,5.0,10.0,75,0.00,,,0.40,,2013-08-03 01:33:00,
2013-08-02 20:43:00,81.0,72.0,29.89,NE,47,5.0,10.0,75,0.00,,,0.40,,2013-08-03 01:43:00,
2013-08-02 20:53:00,81.0,72.0,29.89,NE,47,5.0,10.0,75,0.00,,,0.40,,2013-08-03 01:53:00,
2013-08-02 21:02:00,81.0,72.0,29.89,NE,47,5.0,10.0,75,0.00,,,0.40,,2013-08-03 02:02:00,
2013-08-02 22:22:00,79.0,72.0,29.89,ESE,104,3.0,6.0,80,0.00,,,0.40,,2013-08-03 03:22:00,
2013-08-02 22:32:00,79.0,72.0,29.89,ESE,104,3.0,6.0,80,0.00,,,0.40,,2013-08-03 03:32:00,
2013-08-02 22:43:00,79.0,72.0,29.89,ESE,104,3.0,6.0,80,0.00,,,0.40,,2013-08-03 03:43:00,
2013-08-02 22:53:00,79.0,72.0,29.89,ESE,104,3.0,6.0,80,0.00,,,0.40,,2013-08-03 03:53:00,
2013-08-02 23:02:00,79.0,72.0,29.89,ESE,104,3.0,6.0,80,0.00,,,0.40,,2013-08-03 04:02:00,